Latest Weather Observations for Moss Vale

IDN60801

Issued at 8:02 pm EST Friday 23 June 2017 (issued every 30 minutes, with the page automatically refreshed every 10 minutes)

About weather observations | Map of weather stations | Latest weather observations for NSW | Other Formats
Station Details ID: 068239 Name: MOSS VALE AWS Lat: -34.53 Lon: 150.42 Height: 678.4 m
Data from the previous 72 hours. | See also: Recent months at Moss Vale
Date/Time
EST
Temp
°C
App
Temp
°C
Dew
Point
°C
Rel
Hum
%
Delta-T
°C
Wind Press
QNH
hPa
Press
MSL
hPa
Rain since
9am
mm
Dir  Spd
km/h
Gust
km/h
Spd
kts
Gust
kts
23/08:00pm 7.2 3.2 2.7 73 2.0 W 13 17 7 9 1015.2 1015.6 0.0
23/07:30pm 7.4 4.0 2.1 69 2.3 WSW 9 15 5 8 1015.5 1015.9 0.0
23/07:00pm 7.8 4.1 2.5 69 2.3 W 11 15 6 8 1015.2 1015.6 0.0
23/06:30pm 8.0 4.3 2.5 68 2.4 W 11 15 6 8 1015.2 1015.6 0.0
23/06:00pm 8.4 4.4 2.6 67 2.5 W 13 22 7 12 1015.2 1015.6 0.0
23/05:30pm 8.7 4.3 2.5 65 2.7 W 15 22 8 12 1015.3 1015.7 0.0
23/05:00pm 9.2 4.3 2.1 61 3.1 WSW 17 24 9 13 1015.3 1015.7 0.0
23/04:30pm 10.6 4.7 1.9 55 3.8 W 22 32 12 17 1015.3 1015.7 0.0
23/04:00pm 11.6 4.9 1.5 50 4.4 WSW 26 33 14 18 1015.4 1015.8 0.0
23/03:30pm 12.4 5.8 2.0 49 4.7 WSW 26 33 14 18 1015.0 1015.4 0.0
23/03:00pm 13.3 7.5 2.2 47 5.0 WSW 22 33 12 18 1015.2 1015.6 0.0
23/02:30pm 14.2 8.5 5.0 54 4.5 W 24 33 13 18 1015.1 1015.5 0.0
23/02:00pm 13.9 8.0 3.9 51 4.7 W 24 32 13 17 1015.4 1015.8 0.0
23/01:30pm 13.4 7.8 3.2 50 4.7 W 22 33 12 18 1015.8 1016.2 0.0
23/01:00pm 12.6 6.2 3.3 53 4.3 W 26 35 14 19 1016.3 1016.7 0.0
23/12:30pm 12.6 6.6 3.6 54 4.2 W 24 37 13 20 1016.9 1017.3 0.0
23/12:00pm 12.7 6.6 4.7 58 3.8 W 26 35 14 19 1017.3 1017.8 0.0
23/11:30am 11.9 5.3 4.4 60 3.5 W 28 37 15 20 1018.3 1018.7 0.0
23/11:00am 10.9 4.4 4.6 65 2.9 W 28 39 15 21 1018.9 1019.4 0.0
23/10:30am 9.8 4.4 4.6 70 2.4 W 22 30 12 16 1019.6 1020.0 0.0
23/10:00am 8.7 3.7 4.7 76 1.8 W 20 28 11 15 1019.9 1020.4 0.0
23/09:30am 7.4 2.8 3.6 77 1.7 W 17 22 9 12 1020.2 1020.7 0.0
23/09:00am 6.2 1.5 3.0 80 1.4 W 17 22 9 12 1020.2 1020.7 0.2
23/08:30am 5.8 1.5 3.3 84 1.1 W 15 19 8 10 1020.4 1020.9 0.2
23/08:00am 5.2 1.3 3.2 87 0.9 W 13 17 7 9 1020.4 1020.9 0.2
23/07:30am 5.1 1.1 3.0 86 0.9 W 13 17 7 9 1020.2 1020.7 0.2
23/07:00am 4.4 0.8 2.9 90 0.6 W 11 15 6 8 1020.3 1020.8 0.2
23/06:30am 3.5 -0.9 2.9 96 0.3 W 15 19 8 10 1020.4 1020.9 0.2
23/06:00am 2.0 - - - - WNW 13 17 7 9 1020.0 1020.5 0.0
23/05:30am 0.4 - - - - WNW 11 13 6 7 1020.0 1020.5 0.0
23/05:00am -0.1 - - - - W 9 11 5 6 1020.2 1020.7 0.0
23/04:54am -0.6 - - - - W 9 11 5 6 1020.4 1020.9 0.0
23/04:30am -1.2 - - - - CALM 0 0 0 0 1020.5 1021.0 0.0
23/04:00am -1.1 - - - - CALM 0 0 0 0 1020.4 1020.9 0.0
23/03:59am -1.1 - - - - CALM 0 0 0 0 1020.4 1020.9 0.0
23/03:30am -1.1 - - - - CALM 0 0 0 0 1021.2 1021.7 0.0
23/03:00am -0.8 - - - - CALM 0 0 0 0 1021.4 1021.9 0.0
23/02:30am -0.4 - - - - CALM 0 0 0 0 1021.6 1022.1 0.0
23/02:00am 0.1 - - - - CALM 0 0 0 0 1021.8 1022.3 0.0
23/01:30am 1.0 - - - - CALM 0 0 0 0 1022.0 1022.5 0.0
23/01:00am 1.5 - - - - CALM 0 0 0 0 1022.2 1022.8 0.0
23/12:47am 2.1 - - - - CALM 0 0 0 0 1022.2 1022.8 0.0
23/12:30am 1.9 - - - - CALM 0 0 0 0 1022.4 1023.0 0.0
23/12:00am 2.2 - - - - CALM 0 0 0 0 1022.7 1023.2 0.0
 
Date/Time
EST
Temp
°C
App
Temp
°C
Dew
Point
°C
Rel
Hum
%
Delta-T
°C
Wind Press
QNH
hPa
Press
MSL
hPa
Rain since
9am
mm
Dir  Spd
km/h
Gust
km/h
Spd
kts
Gust
kts
22/11:30pm 3.3 - - - - WSW 4 6 2 3 1023.0 1023.5 0.0
22/11:00pm 3.9 - - - - WSW 7 9 4 5 1023.7 1024.3 0.0
22/10:56pm 4.0 - - - - WSW 7 9 4 5 1023.7 1024.3 0.0
22/10:44pm 4.2 - - - - CALM 0 0 0 0 1023.7 1024.3 0.0
22/10:30pm 4.3 - - - - CALM 0 0 0 0 1023.8 1024.4 0.0
22/10:00pm 4.2 2.9 4.1 99 0.0 CALM 0 0 0 0 1024.2 1024.7 0.0
22/09:55pm 4.3 3.0 4.0 98 0.1 CALM 0 0 0 0 1024.0 1024.6 0.0
22/09:30pm 5.8 4.8 5.8 100 0.0 CALM 0 0 0 0 1024.0 1024.6 0.0
22/09:00pm 4.9 3.5 3.6 91 0.6 CALM 0 7 0 4 1024.3 1024.8 0.0
22/08:30pm 5.8 2.7 3.8 87 0.9 NE 9 13 5 7 1024.5 1025.0 0.0
22/08:00pm 6.4 3.9 3.7 83 1.2 NE 6 7 3 4 1024.6 1025.1 0.0
22/07:30pm 6.4 4.6 3.4 81 1.3 WSW 2 6 1 3 1024.6 1025.1 0.0
22/07:00pm 7.0 4.4 4.0 81 1.3 SSW 7 9 4 5 1024.5 1025.0 0.0
22/06:30pm 6.9 4.4 3.5 79 1.5 NE 6 9 3 5 1024.3 1024.8 0.0
22/06:00pm 7.8 5.3 3.7 75 1.8 NNW 6 9 3 5 1024.4 1024.9 0.0
22/05:30pm 8.3 5.1 3.2 70 2.3 N 9 11 5 6 1024.3 1024.8 0.0
22/05:00pm 10.3 7.7 3.1 61 3.2 NNW 6 7 3 4 1024.0 1024.6 0.0
22/04:30pm 11.8 8.6 2.8 54 4.1 NW 9 11 5 6 1024.4 1024.9 0.0
22/04:00pm 12.9 9.6 4.3 56 4.1 WNW 11 20 6 11 1024.8 1025.4 0.0
22/03:30pm 13.1 9.6 3.7 53 4.4 NW 11 17 6 9 1024.8 1025.4 0.0
22/03:00pm 13.0 8.6 2.6 49 4.7 W 15 20 8 11 1024.6 1025.1 0.0
22/02:30pm 13.2 9.0 3.8 53 4.4 WSW 15 19 8 10 1024.7 1025.2 0.0
22/02:00pm 13.3 9.0 3.4 51 4.6 NW 15 20 8 11 1024.7 1025.2 0.0
22/01:30pm 12.8 8.0 2.6 50 4.7 W 17 22 9 12 1025.1 1025.7 0.0
22/01:00pm 13.3 9.8 3.7 52 4.5 WNW 11 20 6 11 1025.4 1026.0 0.0
22/12:30pm 12.8 9.6 5.0 59 3.7 NNW 11 22 6 12 1026.1 1026.7 0.0
22/12:00pm 12.2 9.8 6.9 70 2.6 WNW 9 13 5 7 1026.7 1027.3 0.0
22/11:30am 11.0 8.3 5.7 70 2.5 SW 9 13 5 7 1027.4 1028.0 0.0
22/11:00am 10.5 8.2 5.5 71 2.4 W 7 9 4 5 1027.7 1028.3 0.0
22/10:30am 10.2 8.0 6.0 75 2.0 WNW 7 11 4 6 1028.2 1028.8 0.0
22/10:21am 10.0 8.0 6.3 78 1.8 WNW 6 11 3 6 1028.3 1028.9 0.0
22/10:00am 9.5 8.9 7.4 87 1.0 CALM 0 0 0 0 1028.5 1029.2 0.0
22/09:30am 7.7 5.9 7.1 96 0.3 SW 6 9 3 5 1028.4 1029.0 0.0
22/09:00am 7.3 5.0 7.3 100 0.0 SSW 9 13 5 7 1028.6 1029.3 0.2
22/08:30am 7.2 - - - - S 6 9 3 5 1028.5 1029.2 0.2
22/08:00am 7.1 - - - - SSW 7 13 4 7 1028.4 1029.0 0.2
22/07:43am 6.9 - - - - SSW 9 13 5 7 1028.3 1028.9 0.2
22/07:30am 6.8 - - - - S 7 9 4 5 1028.1 1028.7 0.2
22/07:24am 6.8 - - - - S 7 9 4 5 1028.2 1028.8 0.2
22/07:10am 6.5 - - - - SSE 6 9 3 5 1028.1 1028.7 0.2
22/07:00am 6.1 - - - - S 7 11 4 6 1028.0 1028.6 0.2
22/06:30am 5.3 - - - - S 6 7 3 4 1027.8 1028.4 0.2
22/06:24am 5.3 - - - - SSE 4 6 2 3 1027.7 1028.3 0.2
22/06:00am 5.3 - - - - S 6 7 3 4 1027.4 1028.0 0.2
22/05:58am 5.2 - - - - S 6 7 3 4 1027.4 1028.0 0.2
22/05:30am 4.7 - - - - SW 7 7 4 4 1027.2 1027.9 0.2
22/05:00am 5.1 - - - - WSW 6 9 3 5 1027.1 1027.7 0.2
22/04:49am 5.0 - - - - NW 4 7 2 4 1027.2 1027.9 0.2
22/04:30am 4.8 - - - - NW 2 7 1 4 1027.2 1027.9 0.2
22/04:00am 4.5 - - - - WSW 6 9 3 5 1027.4 1028.0 0.2
22/03:30am 3.8 - - - - W 4 9 2 5 1027.2 1027.9 0.2
22/03:00am 3.4 - - - - WSW 6 7 3 4 1027.4 1028.0 0.2
22/02:30am 2.9 - - - - WSW 7 9 4 5 1027.7 1028.3 0.2
22/02:00am 2.7 - - - - CALM 0 0 0 0 1027.7 1028.3 0.2
22/01:30am 2.0 - - - - NNE 4 7 2 4 1027.8 1028.4 0.2
22/01:00am 1.1 - - - - SSW 2 7 1 4 1027.9 1028.5 0.2
22/12:30am 1.2 - - - - W 6 11 3 6 1028.0 1028.6 0.2
22/12:00am 1.4 - - - - W 6 13 3 7 1028.2 1028.8 0.2
 
Date/Time
EST
Temp
°C
App
Temp
°C
Dew
Point
°C
Rel
Hum
%
Delta-T
°C
Wind Press
QNH
hPa
Press
MSL
hPa
Rain since
9am
mm
Dir  Spd
km/h
Gust
km/h
Spd
kts
Gust
kts
21/11:30pm 1.9 - - - - NNW 4 7 2 4 1028.3 1028.9 0.2
21/11:00pm 1.1 - - - - NE 6 9 3 5 1028.6 1029.3 0.2
21/10:30pm 2.1 - - - - NW 4 6 2 3 1028.9 1029.5 0.0
21/10:09pm 3.3 - - - - CALM 0 6 0 3 1028.6 1029.3 0.0
21/10:00pm 2.1 - - - - WSW 7 9 4 5 1028.7 1029.4 0.0
21/09:54pm 3.1 - - - - WSW 7 9 4 5 1028.6 1029.3 0.0
21/09:30pm 3.4 - - - - NNW 4 6 2 3 1028.6 1029.3 0.0
21/09:20pm 3.9 - - - - N 6 7 3 4 1028.6 1029.3 0.0
21/09:18pm 4.1 - - - - NE 6 7 3 4 1028.5 1029.2 0.0
21/09:00pm 3.8 - - - - NE 6 9 3 5 1028.6 1029.3 0.0
21/08:44pm 3.8 - - - - NNE 7 11 4 6 1028.7 1029.4 0.0
21/08:30pm 5.4 - - - - NE 6 7 3 4 1028.7 1029.4 0.0
21/08:00pm 6.1 - - - - CALM 0 0 0 0 1029.0 1029.6 0.0
21/07:30pm 5.5 4.5 5.5 100 0.0 CALM 0 0 0 0 1028.9 1029.5 0.0
21/07:22pm 7.0 5.9 7.0 100 0.0 SE 2 7 1 4 1028.9 1029.5 0.0
21/07:18pm 6.9 5.0 6.9 100 0.0 SE 6 7 3 4 1029.0 1029.6 0.0
21/07:00pm 6.9 5.0 6.5 97 0.2 SE 6 7 3 4 1028.5 1029.2 0.0
21/06:59pm 6.9 4.9 6.3 96 0.3 SE 6 7 3 4 1028.5 1029.2 0.0
21/06:30pm 8.0 5.8 6.0 87 0.9 SSE 7 9 4 5 1028.1 1028.7 0.0
21/06:00pm 8.2 5.1 5.5 83 1.3 SE 11 15 6 8 1027.8 1028.4 0.0
21/05:30pm 8.7 5.2 5.3 79 1.6 SSE 13 15 7 8 1027.4 1028.0 0.0
21/05:00pm 9.0 5.7 4.6 74 2.0 SSE 11 15 6 8 1026.9 1027.5 0.0
21/04:30pm 9.8 6.5 4.6 70 2.4 SE 11 15 6 8 1026.5 1027.1 0.0
21/04:00pm 10.6 7.3 4.3 65 2.9 SE 11 15 6 8 1026.3 1026.9 0.0
21/03:30pm 11.0 6.6 4.9 66 2.9 SE 17 20 9 11 1026.3 1026.9 0.0
21/03:00pm 11.3 7.2 4.3 62 3.3 SE 15 19 8 10 1026.1 1026.7 0.0
21/02:30pm 11.5 7.8 4.7 63 3.2 SE 13 19 7 10 1026.2 1026.8 0.0
21/02:00pm 11.8 8.4 5.7 66 2.9 SE 13 20 7 11 1026.3 1026.9 0.0
21/01:30pm 11.6 6.9 5.3 65 3.0 SE 19 26 10 14 1026.3 1026.9 0.0
21/01:00pm 11.6 7.0 5.5 66 2.9 SE 19 30 10 16 1026.3 1026.9 0.0
21/12:30pm 10.9 6.6 5.4 69 2.6 SE 17 30 9 16 1026.6 1027.2 0.0
21/12:00pm 10.9 6.4 6.8 76 2.0 SSE 20 26 11 14 1026.9 1027.5 0.0
21/11:42am 11.3 7.1 7.6 78 1.9 SSE 19 26 10 14 1027.0 1027.6 0.0
21/11:32am 11.5 7.2 8.0 79 1.8 SE 20 30 11 16 1027.2 1027.9 0.0
21/11:30am 11.1 6.7 7.4 78 1.8 SE 20 30 11 16 1027.1 1027.7 0.0
21/11:26am 11.7 7.8 8.7 82 1.5 SE 19 24 10 13 1027.2 1027.9 0.0
21/11:11am 10.6 6.2 7.3 80 1.6 S 20 32 11 17 1027.2 1027.9 0.0
21/11:10am 10.6 6.1 6.9 78 1.8 SSE 20 32 11 17 1027.2 1027.9 0.0
21/11:00am 10.4 6.5 7.1 80 1.6 S 17 24 9 13 1027.2 1027.9 0.0
21/10:49am 10.5 6.3 7.4 81 1.5 S 19 28 10 15 1027.4 1028.0 0.0
21/10:30am 10.0 6.0 6.5 79 1.7 S 17 24 9 13 1027.4 1028.0 0.0
21/10:28am 10.1 6.1 6.8 80 1.6 S 17 24 9 13 1027.4 1028.0 0.0
21/10:00am 9.5 5.5 6.8 83 1.3 S 17 24 9 13 1027.2 1027.9 0.0
21/09:30am 7.5 4.2 4.6 82 1.3 SSW 11 15 6 8 1027.0 1027.6 0.0
21/09:00am 5.1 2.0 1.6 78 1.4 WSW 7 9 4 5 1026.7 1027.3 0.2
21/08:30am 3.9 1.0 1.6 85 0.9 WSW 6 9 3 5 1026.4 1027.0 0.2
21/08:00am 1.9 -1.9 -0.5 84 0.9 WSW 9 11 5 6 1025.9 1026.4 0.2
21/07:30am 2.1 -1.1 0.6 90 0.6 W 7 9 4 5 1025.3 1025.9 0.2
21/07:00am 1.1 -2.3 -0.7 88 0.7 W 7 9 4 5 1025.0 1025.6 0.2
21/06:30am 1.5 -2.3 -1.1 83 1.0 WSW 9 11 5 6 1024.9 1025.5 0.2
21/06:00am 2.4 -1.3 0.0 84 0.9 WSW 9 13 5 7 1024.5 1025.0 0.2
21/05:30am 2.3 -1.3 0.4 87 0.7 WSW 9 11 5 6 1024.3 1024.8 0.2
21/05:00am 2.5 -2.2 0.9 89 0.6 WSW 15 17 8 9 1023.9 1024.5 0.2
21/04:30am 2.1 -2.5 1.5 96 0.2 WSW 15 19 8 10 1023.8 1024.4 0.2
21/04:00am 1.8 -2.0 1.8 100 0.0 WSW 11 13 6 7 1023.9 1024.5 0.2
21/03:30am 2.4 -0.9 2.4 100 0.0 WSW 9 11 5 6 1023.8 1024.4 0.2
21/03:00am 2.4 -0.6 2.3 99 0.0 S 7 9 4 5 1024.2 1024.7 0.2
21/02:30am 3.3 0.2 1.3 87 0.8 WSW 7 11 4 6 1024.0 1024.6 0.2
21/02:00am 4.1 2.1 2.1 87 0.8 W 2 7 1 4 1024.0 1024.6 0.0
21/01:30am 4.7 1.8 2.7 87 0.8 W 7 11 4 6 1024.2 1024.7 0.0
21/01:00am 4.9 1.6 2.3 83 1.1 WSW 9 13 5 7 1024.5 1025.0 0.0
21/12:30am 4.9 0.9 2.6 85 1.0 WSW 13 17 7 9 1024.8 1025.4 0.0
21/12:00am 5.3 2.5 3.0 85 1.0 SW 7 11 4 6 1024.9 1025.5 0.0
 
Date/Time
EST
Temp
°C
App
Temp
°C
Dew
Point
°C
Rel
Hum
%
Delta-T
°C
Wind Press
QNH
hPa
Press
MSL
hPa
Rain since
9am
mm
Dir  Spd
km/h
Gust
km/h
Spd
kts
Gust
kts
20/11:30pm 5.3 1.3 3.0 85 1.0 WSW 13 17 7 9 1025.1 1025.7 0.0
20/11:00pm 5.8 2.3 3.5 85 1.0 WSW 11 13 6 7 1025.3 1025.9 0.0
20/10:30pm 6.1 2.3 3.9 86 1.0 WSW 13 17 7 9 1025.3 1025.9 0.0
20/10:00pm 6.7 3.7 5.8 94 0.4 W 11 13 6 7 1025.3 1025.9 0.0
20/09:30pm 6.0 3.3 5.4 96 0.3 WSW 9 13 5 7 1025.2 1025.8 0.0
20/09:00pm 6.7 4.6 6.0 95 0.3 WSW 6 11 3 6 1025.4 1026.0 0.0
20/08:30pm 7.6 4.4 6.7 94 0.4 W 13 15 7 8 1025.5 1026.1 0.0

Other Formats:

Comma delimited format used in spreadsheet applications
http://www.bom.gov.au/fwo/IDN60801/IDN60801.94746.axf

JavaScript Object Notation format (JSON) in row-major order
http://www.bom.gov.au/fwo/IDN60801/IDN60801.94746.json